Vizconde de Eza — EAXB — position and weather

sailwx.info

Track history (hours):
 
Tides and Currents Weather Stations Pressure Air Temp Water Temp Dewpoint Dewpoint Depression Visibility Wind Speed Wind Dir Waves Ship Positions

Oceanographic research ship Vizconde de Eza (Spain)

Detailed information on ship capabilities available from University of Delaware's Ocean Information Center.

Last reported at 2019-Jun-02 02:15 UTC. Time now 2019-Jun-19 14:46 UTC.
Position N 42°19' W 010°09'.
Warning: this ship's position is 17 days out of date.

Length 53 m; draft 5.6 m.

Type: Other ship. MMSI: 224582000.

Date/timePositionNaut miles runAvg speedWind from/ knotsBaromVisibWave heightAir tempDewpointWater temp
2019-Jun-02 02:15N 42°19' W 010°09'611.7
2019-Jun-02 01:45N 42°19' W 010°01'311.8
2019-Jun-02 01:30N 42°18' W 009°57'611.6
2019-Jun-02 01:00N 42°18' W 009°49'611.4
2019-Jun-02 00:30N 42°18' W 009°41'811.8
2019-Jun-01 23:49N 42°18' W 009°30'412.0
2019-Jun-01 23:30N 42°18' W 009°25'712.0
2019-Jun-01 22:54N 42°18' W 009°16'511.9
2019-Jun-01 22:30N 42°17' W 009°09'611.9
2019-Jun-01 22:00N 42°17' W 009°01'20 3.4
2019-Jun-01 16:08N 42°11' W 009°27'0 0.6
2019-Jun-01 15:39N 42°11' W 009°27'0 0.7
2019-Jun-01 15:19N 42°11' W 009°27'6 2.3
2019-Jun-01 12:35N 42°17' W 009°27'1 7.0
2019-Jun-01 12:30N 42°18' W 009°27'710.5
2019-Jun-01 11:53N 42°18' W 009°18'17 3.4
2019-Jun-01 06:59N 42°08' W 008°59'1 2.8
2019-Jun-01 06:30N 42°09' W 009°01'2 3.1
2019-Jun-01 06:00N 42°09' W 009°03'2 3.5
2019-Jun-01 05:30N 42°09' W 009°05'2 3.4
2019-Jun-01 05:00N 42°10' W 009°08'2 3.1
2019-Jun-01 04:30N 42°10' W 009°10'1 2.8
2019-Jun-01 04:00N 42°10' W 009°11'1 2.7
2019-Jun-01 03:30N 42°10' W 009°13'1 2.7
2019-Jun-01 03:00N 42°10' W 009°15'1 2.8
2019-Jun-01 02:30N 42°10' W 009°17'1 2.9
2019-Jun-01 02:00N 42°10' W 009°19'1 3.0
2019-Jun-01 01:30N 42°11' W 009°21'2 3.1
2019-Jun-01 01:00N 42°11' W 009°23'1 2.7
2019-Jun-01 00:30N 42°11' W 009°25'0 0.9
2019-Jun-01 00:00N 42°11' W 009°25'1 1.2
2019-May-31 23:30N 42°11' W 009°26'1 1.5
2019-May-31 23:00N 42°12' W 009°27'2 3.4
2019-May-31 22:30N 42°14' W 009°27'1 2.5
2019-May-31 22:00N 42°15' W 009°28'2 4.4
2019-May-31 21:30N 42°17' W 009°28'4 8.1
2019-May-31 21:00N 42°17' W 009°22'1 2.3
2019-May-31 20:30N 42°17' W 009°21'2 3.4
2019-May-31 20:00N 42°17' W 009°18'4 8.1
2019-May-31 19:30N 42°17' W 009°13'611.3
2019-May-31 19:00N 42°17' W 009°05'611.1
2019-May-31 18:30N 42°17' W 008°58'510.0
2019-May-31 18:00N 42°14' W 008°52'510.4
2019-May-31 17:30N 42°14' W 008°45'1 1.6
2019-May-31 16:49N 42°14' W 008°44'0 0.0
2019-May-31 16:28N 42°14' W 008°44'0 0.0
2019-May-31 15:31N 42°14' W 008°44'0 0.0
2019-May-31 14:49N 42°14' W 008°44'0 0.0
2019-May-31 14:16N 42°14' W 008°44'0 0.0
2019-May-31 13:58N 42°14' W 008°44'0 0.0
2019-May-31 12:43N 42°14' W 008°44'0 0.0
2019-May-31 12:07N 42°14' W 008°44'0 0.0
2019-May-31 10:52N 42°14' W 008°44'0 0.0
2019-May-31 10:07N 42°14' W 008°44'0 0.0
2019-May-31 09:49N 42°14' W 008°44'0 0.0
2019-May-31 09:28N 42°14' W 008°44'0 0.0
2019-May-31 08:25N 42°14' W 008°44'0 0.0
2019-May-31 07:58N 42°14' W 008°44'0 0.0
2019-May-31 07:19N 42°14' W 008°44'0 0.0
2019-May-31 06:58N 42°14' W 008°44'0 0.0
2019-May-31 06:28N 42°14' W 008°44'0 0.0
2019-May-31 05:58N 42°14' W 008°44'0 0.0
2019-May-31 05:25N 42°14' W 008°44'0 0.0
2019-May-31 04:52N 42°14' W 008°44'0 0.0
2019-May-31 04:13N 42°14' W 008°44'0 0.0
2019-May-31 03:13N 42°14' W 008°44'0 0.0
2019-May-30 23:40N 42°14' W 008°44'0 0.0
2019-May-30 20:46N 42°14' W 008°44'0 0.0
2019-May-30 20:22N 42°14' W 008°44'0 0.0
2019-May-30 19:55N 42°14' W 008°44'0 0.0
2019-May-30 19:28N 42°14' W 008°44'0 0.0
2019-May-30 18:58N 42°14' W 008°44'0 0.0
2019-May-30 18:01N 42°14' W 008°44'0 0.0
2019-May-30 17:49N 42°14' W 008°44'0 0.0
2019-May-30 17:19N 42°14' W 008°44'0 0.0
2019-May-30 16:40N 42°14' W 008°44'0 0.0
2019-May-30 16:28N 42°14' W 008°44'0 0.0
2019-May-30 16:00N 42°14' W 008°44'1 2.5
2019-May-30 15:30N 42°14' W 008°46'611.2
2019-May-30 15:00N 42°11' W 008°52'510.5
2019-May-30 14:30N 42°09' W 008°58'611.6
2019-May-30 14:00N 42°10' W 009°06'611.7
2019-May-30 13:30N 42°11' W 009°14'6 7.3
2019-May-30 12:43N 42°13' W 009°21'1 2.0
2019-May-30 12:27N 42°14' W 009°21'2 3.6
2019-May-30 11:57N 42°15' W 009°21'1 1.6
2019-May-30 11:30N 42°16' W 009°21'2 0.7
2019-May-30 09:14N 42°17' W 009°22'1 2.2
2019-May-30 08:43N 42°18' W 009°21'2 3.6
2019-May-30 08:18N 42°18' W 009°18'1 4.5
2019-May-30 08:00N 42°18' W 009°17'511.1
2019-May-30 07:30N 42°17' W 009°09'611.1
2019-May-30 07:00N 42°17' W 009°02'510.9
2019-May-30 06:30N 42°16' W 008°55'5 9.7
2019-May-30 06:00N 42°14' W 008°49'3 5.7
2019-May-30 05:25N 42°14' W 008°44'0 0.0
2019-May-30 04:49N 42°14' W 008°44'0 0.0
2019-May-29 10:58N 42°14' W 008°44'0 0.0
2019-May-29 10:04N 42°14' W 008°44'0 0.0
2019-May-29 09:43N 42°14' W 008°44'0 0.0
2019-May-29 09:28N 42°14' W 008°44'0 0.0
2019-May-29 08:31N 42°14' W 008°44'0 0.0
2019-May-29 08:16N 42°14' W 008°44'0 0.0
2019-May-29 07:49N 42°14' W 008°44'0 0.0
2019-May-29 07:25N 42°14' W 008°44'0 0.0
2019-May-29 06:52N 42°14' W 008°44'0 0.0
2019-May-29 06:28N 42°14' W 008°44'0 0.0
2019-May-29 05:55N 42°14' W 008°44'0 0.0
2019-May-29 05:10N 42°14' W 008°44'0 0.0
2019-May-29 04:25N 42°14' W 008°44'0 0.0
2019-May-29 03:49N 42°14' W 008°44'0 0.0
2019-May-29 03:25N 42°14' W 008°44'0 0.0
2019-May-29 02:55N 42°14' W 008°44'0 0.0
2019-May-29 02:13N 42°14' W 008°44'0 0.0
2019-May-29 01:55N 42°14' W 008°44'0 0.0
2019-May-29 01:25N 42°14' W 008°44'0 0.0
2019-May-29 00:55N 42°14' W 008°44'0 0.0
2019-May-29 00:25N 42°14' W 008°44'0 0.0
2019-May-28 23:49N 42°14' W 008°44'0 0.0
2019-May-28 23:25N 42°14' W 008°44'0 0.0
2019-May-28 22:34N 42°14' W 008°44'0 0.0
2019-May-28 22:25N 42°14' W 008°44'0 0.0
2019-May-28 21:43N 42°14' W 008°44'0 0.0
2019-May-28 21:28N 42°14' W 008°44'0 0.0
2019-May-28 20:58N 42°14' W 008°44'0 0.0
2019-May-28 20:19N 42°14' W 008°44'0 0.0
2019-May-28 19:43N 42°14' W 008°44'0 0.0
2019-May-28 19:28N 42°14' W 008°44'0 0.0
2019-May-28 18:49N 42°14' W 008°44'0 0.0
2019-May-28 18:10N 42°14' W 008°44'0 0.0
2019-May-28 17:55N 42°14' W 008°44'0 0.0
2019-May-28 17:19N 42°14' W 008°44'0 0.0
2019-May-28 16:58N 42°14' W 008°44'0 0.0
2019-May-28 16:28N 42°14' W 008°44'0 0.0
2019-May-28 15:58N 42°14' W 008°44'0 0.0
2019-May-28 15:28N 42°14' W 008°44'0 0.0
2019-May-28 14:07N 42°14' W 008°44'0 0.0
2019-May-28 13:58N 42°14' W 008°44'0 0.0
2019-May-28 13:28N 42°14' W 008°44'0 0.0
2019-May-28 12:58N 42°14' W 008°44'0 0.0
2019-May-28 12:28N 42°14' W 008°44'0 0.0
2019-May-28 11:52N 42°14' W 008°44'0 0.0
2019-May-28 11:28N 42°14' W 008°44'0 0.0
2019-May-28 10:58N 42°14' W 008°44'0 0.0
2019-May-28 10:28N 42°14' W 008°44'0 0.0
2019-May-28 09:58N 42°14' W 008°44'0 0.0
2019-May-28 09:22N 42°14' W 008°44'0 0.0
2019-May-28 08:55N 42°14' W 008°44'0 0.0
2019-May-28 08:25N 42°14' W 008°44'0 0.0
2019-May-28 07:55N 42°14' W 008°44'0 0.0
2019-May-28 07:28N 42°14' W 008°44'0 0.0
2019-May-28 06:43N 42°14' W 008°44'0 0.0
2019-May-28 06:19N 42°14' W 008°44'0 0.0
2019-May-28 05:28N 42°14' W 008°44'0 0.0
2019-May-28 04:37N 42°14' W 008°44'0 0.0
2019-May-28 04:25N 42°14' W 008°44'0 0.0
2019-May-28 03:04N 42°14' W 008°44'0 0.0
2019-May-28 02:49N 42°14' W 008°44'0 0.0
2019-May-28 01:22N 42°14' W 008°44'0 0.0
2019-May-28 00:22N 42°14' W 008°44'0 0.0
2019-May-27 21:37N 42°14' W 008°44'0 0.0
2019-May-27 21:13N 42°14' W 008°44'0 0.0
2019-May-27 20:37N 42°14' W 008°44'0 0.0
2019-May-27 20:28N 42°14' W 008°44'0 0.0
2019-May-27 19:46N 42°14' W 008°44'0 0.0
2019-May-27 19:16N 42°14' W 008°44'0 0.0
2019-May-27 18:55N 42°14' W 008°44'0 0.0
2019-May-27 18:28N 42°14' W 008°44'0 0.0
2019-May-27 17:55N 42°14' W 008°44'0 0.0
2019-May-27 17:28N 42°14' W 008°44'0 0.0
2019-May-27 16:55N 42°14' W 008°44'0 0.0
2019-May-27 15:22N 42°14' W 008°44'0 0.0
2019-May-27 14:31N 42°14' W 008°44'0 0.0
2019-May-27 14:25N 42°14' W 008°44'0 0.0
2019-May-27 13:55N 42°14' W 008°44'0 0.0
2019-May-27 13:28N 42°14' W 008°44'0 0.0
2019-May-27 12:25N 42°14' W 008°44'0 0.0
2019-May-27 11:43N 42°14' W 008°44'0 0.0
2019-May-27 11:28N 42°14' W 008°44'0 0.0
2019-May-27 10:46N 42°14' W 008°44'0 0.0
2019-May-27 10:25N 42°14' W 008°44'0 0.0
2019-May-27 09:55N 42°14' W 008°44'0 0.0
2019-May-27 09:25N 42°14' W 008°44'0 0.0
2019-May-27 08:58N 42°14' W 008°44'0 0.0
2019-May-27 08:28N 42°14' W 008°44'0 0.0
2019-May-27 07:55N 42°14' W 008°44'0 0.0
2019-May-27 07:28N 42°14' W 008°44'0 0.0
2019-May-27 06:55N 42°14' W 008°44'0 0.0
2019-May-27 06:25N 42°14' W 008°44'0 0.0
2019-May-27 05:55N 42°14' W 008°44'0 0.0
2019-May-27 05:01N 42°14' W 008°44'0 0.0
2019-May-27 04:43N 42°14' W 008°44'0 0.0
2019-May-27 04:16N 42°14' W 008°44'0 0.0
2019-May-27 03:55N 42°14' W 008°44'0 0.0
2019-May-27 03:25N 42°14' W 008°44'0 0.0
2019-May-27 02:37N 42°14' W 008°44'0 0.0
2019-May-27 02:25N 42°14' W 008°44'0 0.0
2019-May-27 01:31N 42°14' W 008°44'0 0.0
2019-May-27 01:19N 42°14' W 008°44'0 0.0
2019-May-27 00:55N 42°14' W 008°44'0 0.0
2019-May-27 00:25N 42°14' W 008°44'0 0.0
2019-May-26 23:01N 42°14' W 008°44'0 0.0
2019-May-26 22:31N 42°14' W 008°44'0 0.0
2019-May-26 16:37N 42°14' W 008°44'0 0.0
2019-May-26 16:22N 42°14' W 008°44'0 0.0
2019-May-26 15:52N 42°14' W 008°44'0 0.0
2019-May-26 15:28N 42°14' W 008°44'0 0.0
2019-May-26 14:52N 42°14' W 008°44'0 0.0
2019-May-26 14:19N 42°14' W 008°44'0 0.0
2019-May-26 13:58N 42°14' W 008°44'0 0.0
2019-May-26 13:28N 42°14' W 008°44'0 0.0
2019-May-26 12:55N 42°14' W 008°44'0 0.0
2019-May-26 12:28N 42°14' W 008°44'0 0.0
2019-May-26 11:46N 42°14' W 008°44'0 0.0
2019-May-26 11:28N 42°14' W 008°44'0 0.0
2019-May-26 10:58N 42°14' W 008°44'0 0.0
2019-May-26 10:28N 42°14' W 008°44'0 0.0
2019-May-26 09:58N 42°14' W 008°44'0 0.0
2019-May-26 09:19N 42°14' W 008°44'0 0.0
2019-May-26 08:55N 42°14' W 008°44'0 0.0
2019-May-26 08:28N 42°14' W 008°44'0 0.0
2019-May-26 07:55N 42°14' W 008°44'0 0.0
2019-May-26 07:25N 42°14' W 008°44'0 0.0
2019-May-26 06:55N 42°14' W 008°44'0 0.0
2019-May-26 06:28N 42°14' W 008°44'0 0.0
2019-May-26 05:55N 42°14' W 008°44'0 0.0
2019-May-26 05:25N 42°14' W 008°44'0 0.0
2019-May-26 04:55N 42°14' W 008°44'0 0.0
2019-May-26 04:25N 42°14' W 008°44'0 0.0
2019-May-26 03:55N 42°14' W 008°44'0 0.0
2019-May-26 03:25N 42°14' W 008°44'0 0.0
2019-May-26 02:55N 42°14' W 008°44'0 0.0
2019-May-26 01:49N 42°14' W 008°44'0 0.0
2019-May-26 01:28N 42°14' W 008°44'0 0.0
2019-May-26 00:55N 42°14' W 008°44'0 0.0
2019-May-26 00:25N 42°14' W 008°44'0 0.0
2019-May-25 23:49N 42°14' W 008°44'0 0.0
2019-May-25 23:25N 42°14' W 008°44'0 0.0
2019-May-25 22:55N 42°14' W 008°44'0 0.0
2019-May-25 22:25N 42°14' W 008°44'0 0.0
2019-May-25 21:49N 42°14' W 008°44'0 0.0
2019-May-25 21:28N 42°14' W 008°44'0 0.0
2019-May-25 20:55N 42°14' W 008°44'0 0.0
2019-May-25 20:25N 42°14' W 008°44'0 0.0
2019-May-25 19:58N 42°14' W 008°44'0 0.0
2019-May-25 19:28N 42°14' W 008°44'0 0.0
2019-May-25 18:55N 42°14' W 008°44'0 0.0
2019-May-25 18:28N 42°14' W 008°44'0 0.0
2019-May-25 17:58N 42°14' W 008°44'0 0.0
2019-May-25 17:28N 42°14' W 008°44'0 0.0
2019-May-25 16:58N 42°14' W 008°44'0 0.0
2019-May-25 16:28N 42°14' W 008°44'0 0.0
2019-May-25 15:58N 42°14' W 008°44'0 0.0
2019-May-25 15:28N 42°14' W 008°44'0 0.0
2019-May-25 14:58N 42°14' W 008°44'0 0.0
2019-May-25 14:25N 42°14' W 008°44'0 0.0
2019-May-25 13:55N 42°14' W 008°44'0 0.0
2019-May-25 13:25N 42°14' W 008°44'0 0.0
2019-May-25 12:55N 42°14' W 008°44'0 0.0
2019-May-25 12:28N 42°14' W 008°44'0 0.0
2019-May-25 11:55N 42°14' W 008°44'0 0.0
2019-May-25 11:07N 42°14' W 008°44'0 0.0
2019-May-25 10:43N 42°14' W 008°44'0 0.0
2019-May-25 10:28N 42°14' W 008°44'0 0.0
2019-May-25 09:55N 42°14' W 008°44'0 0.0
2019-May-25 09:25N 42°14' W 008°44'0 0.0
2019-May-25 08:49N 42°14' W 008°44'0 0.0
2019-May-25 08:13N 42°14' W 008°44'0 0.0
2019-May-25 07:55N 42°14' W 008°44'0 0.0
2019-May-25 07:19N 42°14' W 008°44'0 0.0
2019-May-25 06:55N 42°14' W 008°44'0 0.0
2019-May-25 06:25N 42°14' W 008°44'0 0.0
2019-May-25 05:55N 42°14' W 008°44'0 0.0
2019-May-25 05:22N 42°14' W 008°44'0 0.0
2019-May-25 04:58N 42°14' W 008°44'0 0.0
2019-May-25 04:28N 42°14' W 008°44'0 0.0
2019-May-25 03:55N 42°14' W 008°44'0 0.0
2019-May-25 03:28N 42°14' W 008°44'0 0.0
2019-May-25 02:58N 42°14' W 008°44'0 0.0
2019-May-25 02:28N 42°14' W 008°44'0 0.0
2019-May-25 01:58N 42°14' W 008°44'0 0.0
2019-May-25 01:25N 42°14' W 008°44'0 0.0
2019-May-25 00:55N 42°14' W 008°44'0 0.0
2019-May-25 00:25N 42°14' W 008°44'0 0.0
2019-May-24 23:55N 42°14' W 008°44'0 0.0
2019-May-24 23:28N 42°14' W 008°44'0 0.0
2019-May-24 22:55N 42°14' W 008°44'0 0.0
2019-May-24 22:28N 42°14' W 008°44'0 0.0
2019-May-24 21:58N 42°14' W 008°44'0 0.0
2019-May-24 21:25N 42°14' W 008°44'0 0.0
2019-May-24 20:58N 42°14' W 008°44'0 0.0
2019-May-24 20:28N 42°14' W 008°44'0 0.0
2019-May-24 19:58N 42°14' W 008°44'  
Track history (hours):
 
Tides and Currents Weather Stations Pressure Air Temp Water Temp Dewpoint Dewpoint Depression Visibility Wind Speed Wind Dir Waves Ship Positions

Oceanographic research ship Vizconde de Eza (Spain)

Detailed information on ship capabilities available from University of Delaware's Ocean Information Center.

Last reported at 2019-Jun-02 02:15 UTC. Time now 2019-Jun-19 14:46 UTC.
Position N 42°19' W 010°09'.
Warning: this ship's position is 17 days out of date.

Length 53 m; draft 5.6 m.

Type: Other ship. MMSI: 224582000.

Date/timePositionNaut miles runAvg speedWind from/ knotsBaromVisibWave heightAir tempDewpointWater temp
2019-Jun-02 02:15N 42°19' W 010°09'611.7
2019-Jun-02 01:45N 42°19' W 010°01'311.8
2019-Jun-02 01:30N 42°18' W 009°57'611.6
2019-Jun-02 01:00N 42°18' W 009°49'611.4
2019-Jun-02 00:30N 42°18' W 009°41'811.8
2019-Jun-01 23:49N 42°18' W 009°30'412.0
2019-Jun-01 23:30N 42°18' W 009°25'712.0
2019-Jun-01 22:54N 42°18' W 009°16'511.9
2019-Jun-01 22:30N 42°17' W 009°09'611.9
2019-Jun-01 22:00N 42°17' W 009°01'20 3.4
2019-Jun-01 16:08N 42°11' W 009°27'0 0.6
2019-Jun-01 15:39N 42°11' W 009°27'0 0.7
2019-Jun-01 15:19N 42°11' W 009°27'6 2.3
2019-Jun-01 12:35N 42°17' W 009°27'1 7.0
2019-Jun-01 12:30N 42°18' W 009°27'710.5
2019-Jun-01 11:53N 42°18' W 009°18'17 3.4
2019-Jun-01 06:59N 42°08' W 008°59'1 2.8
2019-Jun-01 06:30N 42°09' W 009°01'2 3.1
2019-Jun-01 06:00N 42°09' W 009°03'2 3.5
2019-Jun-01 05:30N 42°09' W 009°05'2 3.4
2019-Jun-01 05:00N 42°10' W 009°08'2 3.1
2019-Jun-01 04:30N 42°10' W 009°10'1 2.8
2019-Jun-01 04:00N 42°10' W 009°11'1 2.7
2019-Jun-01 03:30N 42°10' W 009°13'1 2.7
2019-Jun-01 03:00N 42°10' W 009°15'1 2.8
2019-Jun-01 02:30N 42°10' W 009°17'1 2.9
2019-Jun-01 02:00N 42°10' W 009°19'1 3.0
2019-Jun-01 01:30N 42°11' W 009°21'2 3.1
2019-Jun-01 01:00N 42°11' W 009°23'1 2.7
2019-Jun-01 00:30N 42°11' W 009°25'0 0.9
2019-Jun-01 00:00N 42°11' W 009°25'1 1.2
2019-May-31 23:30N 42°11' W 009°26'1 1.5
2019-May-31 23:00N 42°12' W 009°27'2 3.4
2019-May-31 22:30N 42°14' W 009°27'1 2.5
2019-May-31 22:00N 42°15' W 009°28'2 4.4
2019-May-31 21:30N 42°17' W 009°28'4 8.1
2019-May-31 21:00N 42°17' W 009°22'1 2.3
2019-May-31 20:30N 42°17' W 009°21'2 3.4
2019-May-31 20:00N 42°17' W 009°18'4 8.1
2019-May-31 19:30N 42°17' W 009°13'611.3
2019-May-31 19:00N 42°17' W 009°05'611.1
2019-May-31 18:30N 42°17' W 008°58'510.0
2019-May-31 18:00N 42°14' W 008°52'510.4
2019-May-31 17:30N 42°14' W 008°45'1 1.6
2019-May-31 16:49N 42°14' W 008°44'0 0.0
2019-May-31 16:28N 42°14' W 008°44'0 0.0
2019-May-31 15:31N 42°14' W 008°44'0 0.0
2019-May-31 14:49N 42°14' W 008°44'0 0.0
2019-May-31 14:16N 42°14' W 008°44'0 0.0
2019-May-31 13:58N 42°14' W 008°44'0 0.0
2019-May-31 12:43N 42°14' W 008°44'0 0.0
2019-May-31 12:07N 42°14' W 008°44'0 0.0
2019-May-31 10:52N 42°14' W 008°44'0 0.0
2019-May-31 10:07N 42°14' W 008°44'0 0.0
2019-May-31 09:49N 42°14' W 008°44'0 0.0
2019-May-31 09:28N 42°14' W 008°44'0 0.0
2019-May-31 08:25N 42°14' W 008°44'0 0.0
2019-May-31 07:58N 42°14' W 008°44'0 0.0
2019-May-31 07:19N 42°14' W 008°44'0 0.0
2019-May-31 06:58N 42°14' W 008°44'0 0.0
2019-May-31 06:28N 42°14' W 008°44'0 0.0
2019-May-31 05:58N 42°14' W 008°44'0 0.0
2019-May-31 05:25N 42°14' W 008°44'0 0.0
2019-May-31 04:52N 42°14' W 008°44'0 0.0
2019-May-31 04:13N 42°14' W 008°44'0 0.0
2019-May-31 03:13N 42°14' W 008°44'0 0.0
2019-May-30 23:40N 42°14' W 008°44'0 0.0
2019-May-30 20:46N 42°14' W 008°44'0 0.0
2019-May-30 20:22N 42°14' W 008°44'0 0.0
2019-May-30 19:55N 42°14' W 008°44'0 0.0
2019-May-30 19:28N 42°14' W 008°44'0 0.0
2019-May-30 18:58N 42°14' W 008°44'0 0.0
2019-May-30 18:01N 42°14' W 008°44'0 0.0
2019-May-30 17:49N 42°14' W 008°44'0 0.0
2019-May-30 17:19N 42°14' W 008°44'0 0.0
2019-May-30 16:40N 42°14' W 008°44'0 0.0
2019-May-30 16:28N 42°14' W 008°44'0 0.0
2019-May-30 16:00N 42°14' W 008°44'1 2.5
2019-May-30 15:30N 42°14' W 008°46'611.2
2019-May-30 15:00N 42°11' W 008°52'510.5
2019-May-30 14:30N 42°09' W 008°58'611.6
2019-May-30 14:00N 42°10' W 009°06'611.7
2019-May-30 13:30N 42°11' W 009°14'6 7.3
2019-May-30 12:43N 42°13' W 009°21'1 2.0
2019-May-30 12:27N 42°14' W 009°21'2 3.6
2019-May-30 11:57N 42°15' W 009°21'1 1.6
2019-May-30 11:30N 42°16' W 009°21'2 0.7
2019-May-30 09:14N 42°17' W 009°22'1 2.2
2019-May-30 08:43N 42°18' W 009°21'2 3.6
2019-May-30 08:18N 42°18' W 009°18'1 4.5
2019-May-30 08:00N 42°18' W 009°17'511.1
2019-May-30 07:30N 42°17' W 009°09'611.1
2019-May-30 07:00N 42°17' W 009°02'510.9
2019-May-30 06:30N 42°16' W 008°55'5 9.7
2019-May-30 06:00N 42°14' W 008°49'3 5.7
2019-May-30 05:25N 42°14' W 008°44'0 0.0
2019-May-30 04:49N 42°14' W 008°44'0 0.0
2019-May-29 10:58N 42°14' W 008°44'0 0.0
2019-May-29 10:04N 42°14' W 008°44'0 0.0
2019-May-29 09:43N 42°14' W 008°44'0 0.0
2019-May-29 09:28N 42°14' W 008°44'0 0.0
2019-May-29 08:31N 42°14' W 008°44'0 0.0
2019-May-29 08:16N 42°14' W 008°44'0 0.0
2019-May-29 07:49N 42°14' W 008°44'0 0.0
2019-May-29 07:25N 42°14' W 008°44'0 0.0
2019-May-29 06:52N 42°14' W 008°44'0 0.0
2019-May-29 06:28N 42°14' W 008°44'0 0.0
2019-May-29 05:55N 42°14' W 008°44'0 0.0
2019-May-29 05:10N 42°14' W 008°44'0 0.0
2019-May-29 04:25N 42°14' W 008°44'0 0.0
2019-May-29 03:49N 42°14' W 008°44'0 0.0
2019-May-29 03:25N 42°14' W 008°44'0 0.0
2019-May-29 02:55N 42°14' W 008°44'0 0.0
2019-May-29 02:13N 42°14' W 008°44'0 0.0
2019-May-29 01:55N 42°14' W 008°44'0 0.0
2019-May-29 01:25N 42°14' W 008°44'0 0.0
2019-May-29 00:55N 42°14' W 008°44'0 0.0
2019-May-29 00:25N 42°14' W 008°44'0 0.0
2019-May-28 23:49N 42°14' W 008°44'0 0.0
2019-May-28 23:25N 42°14' W 008°44'0 0.0
2019-May-28 22:34N 42°14' W 008°44'0 0.0
2019-May-28 22:25N 42°14' W 008°44'0 0.0
2019-May-28 21:43N 42°14' W 008°44'0 0.0
2019-May-28 21:28N 42°14' W 008°44'0 0.0
2019-May-28 20:58N 42°14' W 008°44'0 0.0
2019-May-28 20:19N 42°14' W 008°44'0 0.0
2019-May-28 19:43N 42°14' W 008°44'0 0.0
2019-May-28 19:28N 42°14' W 008°44'0 0.0
2019-May-28 18:49N 42°14' W 008°44'0 0.0
2019-May-28 18:10N 42°14' W 008°44'0 0.0
2019-May-28 17:55N 42°14' W 008°44'0 0.0
2019-May-28 17:19N 42°14' W 008°44'0 0.0
2019-May-28 16:58N 42°14' W 008°44'0 0.0
2019-May-28 16:28N 42°14' W 008°44'0 0.0
2019-May-28 15:58N 42°14' W 008°44'0 0.0
2019-May-28 15:28N 42°14' W 008°44'0 0.0
2019-May-28 14:07N 42°14' W 008°44'0 0.0
2019-May-28 13:58N 42°14' W 008°44'0 0.0
2019-May-28 13:28N 42°14' W 008°44'0 0.0
2019-May-28 12:58N 42°14' W 008°44'0 0.0
2019-May-28 12:28N 42°14' W 008°44'0 0.0
2019-May-28 11:52N 42°14' W 008°44'0 0.0
2019-May-28 11:28N 42°14' W 008°44'0 0.0
2019-May-28 10:58N 42°14' W 008°44'0 0.0
2019-May-28 10:28N 42°14' W 008°44'0 0.0
2019-May-28 09:58N 42°14' W 008°44'0 0.0
2019-May-28 09:22N 42°14' W 008°44'0 0.0
2019-May-28 08:55N 42°14' W 008°44'0 0.0
2019-May-28 08:25N 42°14' W 008°44'0 0.0
2019-May-28 07:55N 42°14' W 008°44'0 0.0
2019-May-28 07:28N 42°14' W 008°44'0 0.0
2019-May-28 06:43N 42°14' W 008°44'0 0.0
2019-May-28 06:19N 42°14' W 008°44'0 0.0
2019-May-28 05:28N 42°14' W 008°44'0 0.0
2019-May-28 04:37N 42°14' W 008°44'0 0.0
2019-May-28 04:25N 42°14' W 008°44'0 0.0
2019-May-28 03:04N 42°14' W 008°44'0 0.0
2019-May-28 02:49N 42°14' W 008°44'0 0.0
2019-May-28 01:22N 42°14' W 008°44'0 0.0
2019-May-28 00:22N 42°14' W 008°44'0 0.0
2019-May-27 21:37N 42°14' W 008°44'0 0.0
2019-May-27 21:13N 42°14' W 008°44'0 0.0
2019-May-27 20:37N 42°14' W 008°44'0 0.0
2019-May-27 20:28N 42°14' W 008°44'0 0.0
2019-May-27 19:46N 42°14' W 008°44'0 0.0
2019-May-27 19:16N 42°14' W 008°44'0 0.0
2019-May-27 18:55N 42°14' W 008°44'0 0.0
2019-May-27 18:28N 42°14' W 008°44'0 0.0
2019-May-27 17:55N 42°14' W 008°44'0 0.0
2019-May-27 17:28N 42°14' W 008°44'0 0.0
2019-May-27 16:55N 42°14' W 008°44'0 0.0
2019-May-27 15:22N 42°14' W 008°44'0 0.0
2019-May-27 14:31N 42°14' W 008°44'0 0.0
2019-May-27 14:25N 42°14' W 008°44'0 0.0
2019-May-27 13:55N 42°14' W 008°44'0 0.0
2019-May-27 13:28N 42°14' W 008°44'0 0.0
2019-May-27 12:25N 42°14' W 008°44'0 0.0
2019-May-27 11:43N 42°14' W 008°44'0 0.0
2019-May-27 11:28N 42°14' W 008°44'0 0.0
2019-May-27 10:46N 42°14' W 008°44'0 0.0
2019-May-27 10:25N 42°14' W 008°44'0 0.0
2019-May-27 09:55N 42°14' W 008°44'0 0.0
2019-May-27 09:25N 42°14' W 008°44'0 0.0
2019-May-27 08:58N 42°14' W 008°44'0 0.0
2019-May-27 08:28N 42°14' W 008°44'0 0.0
2019-May-27 07:55N 42°14' W 008°44'0 0.0
2019-May-27 07:28N 42°14' W 008°44'0 0.0
2019-May-27 06:55N 42°14' W 008°44'0 0.0
2019-May-27 06:25N 42°14' W 008°44'0 0.0
2019-May-27 05:55N 42°14' W 008°44'0 0.0
2019-May-27 05:01N 42°14' W 008°44'0 0.0
2019-May-27 04:43N 42°14' W 008°44'0 0.0
2019-May-27 04:16N 42°14' W 008°44'0 0.0
2019-May-27 03:55N 42°14' W 008°44'0 0.0
2019-May-27 03:25N 42°14' W 008°44'0 0.0
2019-May-27 02:37N 42°14' W 008°44'0 0.0
2019-May-27 02:25N 42°14' W 008°44'0 0.0
2019-May-27 01:31N 42°14' W 008°44'0 0.0
2019-May-27 01:19N 42°14' W 008°44'0 0.0
2019-May-27 00:55N 42°14' W 008°44'0 0.0
2019-May-27 00:25N 42°14' W 008°44'0 0.0
2019-May-26 23:01N 42°14' W 008°44'0 0.0
2019-May-26 22:31N 42°14' W 008°44'0 0.0
2019-May-26 16:37N 42°14' W 008°44'0 0.0
2019-May-26 16:22N 42°14' W 008°44'0 0.0
2019-May-26 15:52N 42°14' W 008°44'0 0.0
2019-May-26 15:28N 42°14' W 008°44'0 0.0
2019-May-26 14:52N 42°14' W 008°44'0 0.0
2019-May-26 14:19N 42°14' W 008°44'0 0.0
2019-May-26 13:58N 42°14' W 008°44'0 0.0
2019-May-26 13:28N 42°14' W 008°44'0 0.0
2019-May-26 12:55N 42°14' W 008°44'0 0.0
2019-May-26 12:28N 42°14' W 008°44'0 0.0
2019-May-26 11:46N 42°14' W 008°44'0 0.0
2019-May-26 11:28N 42°14' W 008°44'0 0.0
2019-May-26 10:58N 42°14' W 008°44'0 0.0
2019-May-26 10:28N 42°14' W 008°44'0 0.0
2019-May-26 09:58N 42°14' W 008°44'0 0.0
2019-May-26 09:19N 42°14' W 008°44'0 0.0
2019-May-26 08:55N 42°14' W 008°44'0 0.0
2019-May-26 08:28N 42°14' W 008°44'0 0.0
2019-May-26 07:55N 42°14' W 008°44'0 0.0
2019-May-26 07:25N 42°14' W 008°44'0 0.0
2019-May-26 06:55N 42°14' W 008°44'0 0.0
2019-May-26 06:28N 42°14' W 008°44'0 0.0
2019-May-26 05:55N 42°14' W 008°44'0 0.0
2019-May-26 05:25N 42°14' W 008°44'0 0.0
2019-May-26 04:55N 42°14' W 008°44'0 0.0
2019-May-26 04:25N 42°14' W 008°44'0 0.0
2019-May-26 03:55N 42°14' W 008°44'0 0.0
2019-May-26 03:25N 42°14' W 008°44'0 0.0
2019-May-26 02:55N 42°14' W 008°44'0 0.0
2019-May-26 01:49N 42°14' W 008°44'0 0.0
2019-May-26 01:28N 42°14' W 008°44'0 0.0
2019-May-26 00:55N 42°14' W 008°44'0 0.0
2019-May-26 00:25N 42°14' W 008°44'0 0.0
2019-May-25 23:49N 42°14' W 008°44'0 0.0
2019-May-25 23:25N 42°14' W 008°44'0 0.0
2019-May-25 22:55N 42°14' W 008°44'0 0.0
2019-May-25 22:25N 42°14' W 008°44'0 0.0
2019-May-25 21:49N 42°14' W 008°44'0 0.0
2019-May-25 21:28N 42°14' W 008°44'0 0.0
2019-May-25 20:55N 42°14' W 008°44'0 0.0
2019-May-25 20:25N 42°14' W 008°44'0 0.0
2019-May-25 19:58N 42°14' W 008°44'0 0.0
2019-May-25 19:28N 42°14' W 008°44'0 0.0
2019-May-25 18:55N 42°14' W 008°44'0 0.0
2019-May-25 18:28N 42°14' W 008°44'0 0.0
2019-May-25 17:58N 42°14' W 008°44'0 0.0
2019-May-25 17:28N 42°14' W 008°44'0 0.0
2019-May-25 16:58N 42°14' W 008°44'0 0.0
2019-May-25 16:28N 42°14' W 008°44'0 0.0
2019-May-25 15:58N 42°14' W 008°44'0 0.0
2019-May-25 15:28N 42°14' W 008°44'0 0.0
2019-May-25 14:58N 42°14' W 008°44'0 0.0
2019-May-25 14:25N 42°14' W 008°44'0 0.0
2019-May-25 13:55N 42°14' W 008°44'0 0.0
2019-May-25 13:25N 42°14' W 008°44'0 0.0
2019-May-25 12:55N 42°14' W 008°44'0 0.0
2019-May-25 12:28N 42°14' W 008°44'0 0.0
2019-May-25 11:55N 42°14' W 008°44'0 0.0
2019-May-25 11:07N 42°14' W 008°44'0 0.0
2019-May-25 10:43N 42°14' W 008°44'0 0.0
2019-May-25 10:28N 42°14' W 008°44'0 0.0
2019-May-25 09:55N 42°14' W 008°44'0 0.0
2019-May-25 09:25N 42°14' W 008°44'0 0.0
2019-May-25 08:49N 42°14' W 008°44'0 0.0
2019-May-25 08:13N 42°14' W 008°44'0 0.0
2019-May-25 07:55N 42°14' W 008°44'0 0.0
2019-May-25 07:19N 42°14' W 008°44'0 0.0
2019-May-25 06:55N 42°14' W 008°44'0 0.0
2019-May-25 06:25N 42°14' W 008°44'0 0.0
2019-May-25 05:55N 42°14' W 008°44'0 0.0
2019-May-25 05:22N 42°14' W 008°44'0 0.0
2019-May-25 04:58N 42°14' W 008°44'0 0.0
2019-May-25 04:28N 42°14' W 008°44'0 0.0
2019-May-25 03:55N 42°14' W 008°44'0 0.0
2019-May-25 03:28N 42°14' W 008°44'0 0.0
2019-May-25 02:58N 42°14' W 008°44'0 0.0
2019-May-25 02:28N 42°14' W 008°44'0 0.0
2019-May-25 01:58N 42°14' W 008°44'0 0.0
2019-May-25 01:25N 42°14' W 008°44'0 0.0
2019-May-25 00:55N 42°14' W 008°44'0 0.0
2019-May-25 00:25N 42°14' W 008°44'0 0.0
2019-May-24 23:55N 42°14' W 008°44'0 0.0
2019-May-24 23:28N 42°14' W 008°44'0 0.0
2019-May-24 22:55N 42°14' W 008°44'0 0.0
2019-May-24 22:28N 42°14' W 008°44'0 0.0
2019-May-24 21:58N 42°14' W 008°44'0 0.0
2019-May-24 21:25N 42°14' W 008°44'0 0.0
2019-May-24 20:58N 42°14' W 008°44'0 0.0
2019-May-24 20:28N 42°14' W 008°44'0 0.0
2019-May-24 19:58N 42°14' W 008°44'  

Dump ship's entire track history